Terminal Aerodrome Forecast
Issued by NWS

Home | Current Version | Previous Version | Text Only | Print | Product List | Glossary On
Versions: 1 2 3 4 5 6 7 8 9 10 11 12 13 14 15 16 17 18 19 20
000
FTUS43 KDLH 180542
TAFHYR
TAF
KHYR 180542Z 1806/1906 VRB02KT P6SM BKN250
     FM181200 VRB03KT 5SM -SN BKN035
     FM181400 13007KT 4SM -SN OVC025 WS020/19046KT
     FM181800 16013KT 3SM -SN OVC020 WS020/19046KT
     FM190000 19006KT P6SM VCSH OVC023=

USA.gov is the U.S. government's official web portal to all federal, state and local government web resources and services.